createdAt,value
2019-04-25T00:01:43.923Z,99978.02
2019-04-25T00:04:11.724Z,99976.56
2019-04-25T00:06:38.589Z,99973.67
2019-04-25T00:09:09.170Z,99987.52
2019-04-25T00:11:35.001Z,99991.86
2019-04-25T00:14:01.589Z,99990.27
2019-04-25T00:16:31.113Z,99999.95
2019-04-25T00:18:57.141Z,99999.70
2019-04-25T00:21:37.081Z,100005.67
2019-04-25T00:24:08.405Z,100004.28
2019-04-25T00:26:38.996Z,100006.63
2019-04-25T00:29:05.032Z,100015.38
2019-04-25T00:31:31.899Z,100015.80
2019-04-25T00:33:57.968Z,100006.97
2019-04-25T00:36:23.827Z,100007.73
2019-04-25T00:38:50.218Z,100008.09
2019-04-25T00:41:17.519Z,100004.84
2019-04-25T00:43:44.082Z,100004.16
2019-04-25T00:46:11.385Z,100001.53
2019-04-25T00:48:37.385Z,100005.58
2019-04-25T00:51:03.406Z,100012.17
2019-04-25T00:53:29.245Z,100006.44
2019-04-25T00:55:55.193Z,100002.77
2019-04-25T00:58:23.019Z,100005.44
2019-04-25T01:00:56.923Z,99998.52
2019-04-25T01:03:24.738Z,99999.17
2019-04-25T01:05:53.277Z,100004.39
2019-04-25T01:08:18.723Z,99997.22
2019-04-25T01:10:44.757Z,100006.03
2019-04-25T01:13:11.474Z,100001.45
2019-04-25T01:15:37.557Z,100001.24
2019-04-25T01:18:03.684Z,100006.17
2019-04-25T01:20:29.579Z,100006.91
2019-04-25T01:22:57.762Z,100005.91
2019-04-25T01:25:23.452Z,100010.42
2019-04-25T01:27:49.775Z,100009.98
2019-04-25T01:30:19.031Z,99999.16
2019-04-25T01:32:44.979Z,100001.45
2019-04-25T01:35:13.995Z,100009.98
2019-04-25T01:37:43.725Z,100009.80
2019-04-25T01:40:14.679Z,100005.28
2019-04-25T01:42:43.835Z,100001.35
2019-04-25T01:45:10.211Z,100003.77
2019-04-25T01:47:36.067Z,100009.28
2019-04-25T01:50:04.001Z,100012.06
2019-04-25T01:52:30.063Z,100008.55
2019-04-25T01:54:56.266Z,100010.73
2019-04-25T01:57:23.965Z,100009.67
2019-04-25T01:59:49.959Z,100015.72
2019-04-25T02:02:17.702Z,100017.39
2019-04-25T02:04:44.367Z,100018.78
2019-04-25T02:07:10.615Z,100024.58
2019-04-25T02:09:36.764Z,100027.03
2019-04-25T02:12:07.576Z,100028.62
2019-04-25T02:14:33.747Z,100020.70
2019-04-25T02:17:00.364Z,100032.94
2019-04-25T02:19:26.386Z,100027.27
2019-04-25T02:21:54.509Z,100036.69
2019-04-25T02:24:20.346Z,100031.17
2019-04-25T02:26:46.232Z,100034.69
2019-04-25T02:29:13.591Z,100040.80
2019-04-25T02:31:39.741Z,100036.10
2019-04-25T02:34:08.343Z,100036.60
2019-04-25T02:36:34.668Z,100037.28
2019-04-25T02:39:03.448Z,100038.14
2019-04-25T02:41:28.549Z,100036.55
2019-04-25T02:43:59.982Z,100033.67
2019-04-25T02:46:41.139Z,100031.61
2019-04-25T02:49:09.758Z,100037.62
2019-04-25T02:51:40.305Z,100034.43
2019-04-25T02:54:08.072Z,100038.56
2019-04-25T02:56:37.861Z,100035.91
2019-04-25T02:59:03.548Z,100028.63
2019-04-25T03:01:30.147Z,100015.28
2019-04-25T03:03:57.423Z,100027.89
2019-04-25T03:06:25.052Z,100038.19
2019-04-25T03:08:51.175Z,100035.75
2019-04-25T03:11:17.103Z,100046.65
2019-04-25T03:13:44.157Z,100052.61
2019-04-25T03:16:11.061Z,100060.05
2019-04-25T03:18:39.159Z,100058.66
2019-04-25T03:21:13.890Z,100063.23
2019-04-25T03:23:37.733Z,100058.70
2019-04-25T03:26:05.202Z,100055.41
2019-04-25T03:28:33.992Z,100065.07
2019-04-25T03:31:02.096Z,100066.73
2019-04-25T03:33:28.120Z,100066.87
2019-04-25T03:35:54.457Z,100067.84
2019-04-25T03:38:20.541Z,100068.94
2019-04-25T03:40:46.578Z,100072.88
2019-04-25T03:43:14.838Z,100072.06
2019-04-25T03:45:40.345Z,100070.27
2019-04-25T03:48:06.475Z,100072.84
2019-04-25T03:50:34.069Z,100072.84
2019-04-25T03:53:00.125Z,100068.63
2019-04-25T03:55:26.089Z,100071.72
2019-04-25T03:57:51.908Z,100073.77
2019-04-25T04:00:18.053Z,100075.14
2019-04-25T04:02:44.383Z,100076.05
2019-04-25T04:05:11.441Z,100078.19
2019-04-25T04:07:37.428Z,100076.05
2019-04-25T04:10:05.776Z,100083.27
2019-04-25T04:12:33.913Z,100082.41
2019-04-25T04:15:00.288Z,100075.30
2019-04-25T04:17:28.036Z,100068.09
2019-04-25T04:20:03.823Z,100074.41
2019-04-25T04:22:37.638Z,100073.93
2019-04-25T04:25:05.927Z,100073.93
2019-04-25T04:27:31.820Z,100072.03
2019-04-25T04:29:57.656Z,100075.73
2019-04-25T04:32:24.208Z,100072.27
2019-04-25T04:34:50.334Z,100075.50
2019-04-25T04:37:16.354Z,100077.49
2019-04-25T04:39:43.726Z,100069.61
2019-04-25T04:42:09.727Z,100073.98
2019-04-25T04:44:35.572Z,100068.28
2019-04-25T04:47:01.953Z,100073.12
2019-04-25T04:49:28.293Z,100067.63
2019-04-25T04:51:54.255Z,100082.98
2019-04-25T04:54:20.158Z,100086.01
2019-04-25T04:56:46.046Z,100077.91
2019-04-25T04:59:12.856Z,100083.58
2019-04-25T05:01:58.486Z,100084.84
2019-04-25T05:04:26.307Z,100087.30
2019-04-25T05:06:54.104Z,100094.17
2019-04-25T05:09:23.779Z,100093.07
2019-04-25T05:11:49.615Z,100109.38
2019-04-25T05:14:16.221Z,100110.09
2019-04-25T05:16:43.198Z,100112.06
2019-04-25T05:19:09.364Z,100117.13
2019-04-25T05:21:35.283Z,100115.50
2019-04-25T05:24:01.114Z,100121.50
2019-04-25T05:26:27.077Z,100121.72
2019-04-25T05:28:53.311Z,100121.41
2019-04-25T05:31:25.712Z,100124.81
2019-04-25T05:33:53.512Z,100126.56
2019-04-25T05:36:19.737Z,100127.96
2019-04-25T05:38:45.585Z,100124.33
2019-04-25T05:41:14.788Z,100131.63
2019-04-25T05:43:41.222Z,100130.23
2019-04-25T05:46:07.323Z,100129.81
2019-04-25T05:48:34.028Z,100130.56
2019-04-25T05:51:00.003Z,100132.20
2019-04-25T05:53:26.332Z,100129.49
2019-04-25T05:55:52.158Z,100135.55
2019-04-25T05:58:18.545Z,100131.95
2019-04-25T06:00:44.737Z,100142.45
2019-04-25T06:03:10.827Z,100145.44
2019-04-25T06:05:36.758Z,100154.10
2019-04-25T06:08:04.342Z,100155.91
2019-04-25T06:10:38.185Z,100162.35
2019-04-25T06:13:13.644Z,100168.36
2019-04-25T06:15:40.313Z,100162.30
2019-04-25T06:18:17.142Z,100164.64
2019-04-25T06:20:44.287Z,100164.05
2019-04-25T06:23:18.886Z,100165.95
2019-04-25T06:25:45.282Z,100163.88
2019-04-25T06:28:16.024Z,100162.69
2019-04-25T06:30:41.864Z,100160.65
2019-04-25T06:33:07.971Z,100158.03
2019-04-25T06:35:35.687Z,100160.98
2019-04-25T06:38:03.502Z,100160.23
2019-04-25T06:40:30.679Z,100165.44
2019-04-25T06:42:56.632Z,100166.36
2019-04-25T06:45:26.692Z,100173.53
2019-04-25T06:48:06.409Z,100165.99
2019-04-25T06:50:34.115Z,100160.79
2019-04-25T06:53:03.521Z,100156.54
2019-04-25T06:55:31.174Z,100149.52
2019-04-25T06:58:08.885Z,100157.98
2019-04-25T07:00:28.440Z,100153.80
2019-04-25T07:02:53.249Z,100160.10
2019-04-25T07:05:30.499Z,100160.84
2019-04-25T07:07:47.568Z,100168.33
2019-04-25T07:10:14.009Z,100166.41
2019-04-25T07:12:39.981Z,100165.46
2019-04-25T07:15:08.225Z,100168.23
2019-04-25T07:17:34.975Z,100163.64
2019-04-25T07:20:04.608Z,100168.73
2019-04-25T07:22:30.722Z,100156.89
2019-04-25T07:24:56.541Z,100161.53
2019-04-25T07:27:25.434Z,100163.44
2019-04-25T07:29:53.939Z,100145.80
2019-04-25T07:32:30.820Z,100145.55
2019-04-25T07:34:55.924Z,100150.34
2019-04-25T07:37:21.878Z,100154.58
2019-04-25T07:39:48.141Z,100156.52
2019-04-25T07:42:14.152Z,100158.78
2019-04-25T07:44:49.773Z,100166.64
2019-04-25T07:47:07.961Z,100166.59
2019-04-25T07:49:34.841Z,100154.27
2019-04-25T07:52:01.115Z,100159.13
2019-04-25T07:54:27.879Z,100161.86
2019-04-25T07:56:55.126Z,100162.52
2019-04-25T07:59:21.126Z,100161.27
2019-04-25T08:01:47.067Z,100169.37
2019-04-25T08:04:13.678Z,100173.27
2019-04-25T08:06:39.857Z,100173.52
2019-04-25T08:09:08.470Z,100176.87
2019-04-25T08:11:35.101Z,100180.77
2019-04-25T08:14:07.051Z,100179.81
2019-04-25T08:16:35.714Z,100179.18
2019-04-25T08:19:03.954Z,100176.89
2019-04-25T08:21:32.104Z,100170.17
2019-04-25T08:23:59.964Z,100181.66
2019-04-25T08:26:25.878Z,100175.72
2019-04-25T08:28:55.783Z,100179.31
2019-04-25T08:31:19.594Z,100178.11
2019-04-25T08:33:46.630Z,100179.78
2019-04-25T08:36:13.669Z,100182.06
2019-04-25T08:38:40.296Z,100183.77
2019-04-25T08:41:06.305Z,100174.86
2019-04-25T08:43:34.226Z,100183.31
2019-04-25T08:46:00.317Z,100190.95
2019-04-25T08:48:28.102Z,100185.00
2019-04-25T08:51:13.498Z,100192.06
2019-04-25T08:53:45.065Z,100191.28
2019-04-25T08:56:13.361Z,100195.23
2019-04-25T08:58:43.653Z,100193.60
2019-04-25T09:01:21.575Z,100182.39
2019-04-25T09:03:55.568Z,100180.23
2019-04-25T09:06:22.193Z,100182.21
2019-04-25T09:08:48.065Z,100187.75
2019-04-25T09:11:14.045Z,100188.64
2019-04-25T09:13:39.874Z,100185.94
2019-04-25T09:16:05.727Z,100185.41
2019-04-25T09:18:31.597Z,100195.84
2019-04-25T09:20:57.453Z,100198.03
2019-04-25T09:23:23.714Z,100192.05
2019-04-25T09:25:49.801Z,100186.33
2019-04-25T09:28:15.632Z,100187.36
2019-04-25T09:30:42.430Z,100194.07
2019-04-25T09:33:08.952Z,100187.48
2019-04-25T09:35:36.112Z,100187.08
2019-04-25T09:38:03.453Z,100185.98
2019-04-25T09:40:29.519Z,100187.89
2019-04-25T09:42:57.254Z,100188.02
2019-04-25T09:45:43.546Z,100177.88
2019-04-25T09:51:07.507Z,100188.43
2019-04-25T09:53:38.831Z,100187.31
2019-04-25T09:56:04.225Z,100193.94
2019-04-25T09:58:34.662Z,100195.42
2019-04-25T10:01:03.809Z,100190.03
2019-04-25T10:03:30.471Z,100193.39
2019-04-25T10:05:56.299Z,100199.61
2019-04-25T10:08:24.157Z,100195.34
2019-04-25T10:10:50.230Z,100196.53
2019-04-25T10:13:16.160Z,100185.38
2019-04-25T10:16:03.933Z,100187.28
2019-04-25T10:18:30.869Z,100186.53
2019-04-25T10:20:57.006Z,100187.92
2019-04-25T10:23:24.076Z,100181.69
2019-04-25T10:25:50.232Z,100171.09
2019-04-25T10:28:16.275Z,100179.06
2019-04-25T10:30:43.514Z,100174.47
2019-04-25T10:33:09.693Z,100168.34
2019-04-25T10:35:46.643Z,100169.17
2019-04-25T10:38:04.624Z,100180.74
2019-04-25T10:40:30.732Z,100184.64
2019-04-25T10:42:56.810Z,100176.08
2019-04-25T10:45:24.269Z,100172.15
2019-04-25T10:47:50.818Z,100167.22
2019-04-25T10:50:16.872Z,100178.05
2019-04-25T10:52:45.464Z,100176.98
2019-04-25T10:55:11.200Z,100174.82
2019-04-25T10:57:37.162Z,100167.00
2019-04-25T11:00:09.628Z,100172.27
2019-04-25T11:02:35.748Z,100173.72
2019-04-25T11:05:04.770Z,100167.69
2019-04-25T11:07:30.581Z,100164.48
2019-04-25T11:09:56.422Z,100159.15
2019-04-25T11:12:23.475Z,100155.00
2019-04-25T11:14:49.645Z,100146.13
2019-04-25T11:17:15.655Z,100138.64
2019-04-25T11:19:42.486Z,100122.22
2019-04-25T11:22:09.484Z,100122.29
2019-04-25T11:24:35.670Z,100113.45
2019-04-25T11:27:01.697Z,100102.67
2019-04-25T11:29:28.136Z,100103.34
2019-04-25T11:31:54.240Z,100102.27
2019-04-25T11:34:21.209Z,100102.06
2019-04-25T11:36:47.120Z,100106.28
2019-04-25T11:39:24.355Z,100106.23
2019-04-25T11:41:51.373Z,100102.37
2019-04-25T11:44:17.264Z,100097.83
2019-04-25T11:46:44.648Z,100085.81
2019-04-25T11:49:15.077Z,100073.43
2019-04-25T11:51:41.805Z,100063.01
2019-04-25T11:54:08.601Z,100057.44
2019-04-25T11:56:34.418Z,100070.99
2019-04-25T11:59:00.271Z,100071.20
2019-04-25T12:01:26.358Z,100070.53
2019-04-25T12:03:52.692Z,100069.77
2019-04-25T12:06:18.704Z,100081.81
2019-04-25T12:08:46.508Z,100082.72
2019-04-25T12:11:13.904Z,100089.97
2019-04-25T12:13:40.081Z,100093.78
2019-04-25T12:16:06.489Z,100100.80
2019-04-25T12:18:33.901Z,100114.39
2019-04-25T12:21:00.362Z,100109.64
2019-04-25T12:23:26.252Z,100116.97
2019-04-25T12:25:54.032Z,100131.81
2019-04-25T12:28:19.860Z,100127.19
2019-04-25T12:30:47.311Z,100120.00
2019-04-25T12:33:21.065Z,100118.45
2019-04-25T12:35:41.366Z,100120.61
2019-04-25T12:38:07.214Z,100117.99
2019-04-25T12:40:34.340Z,100111.53
2019-04-25T12:43:00.326Z,100103.70
2019-04-25T12:45:28.079Z,100099.25
2019-04-25T12:47:59.361Z,100112.82
2019-04-25T12:50:25.470Z,100121.97
2019-04-25T12:52:51.421Z,100121.47
2019-04-25T12:55:17.433Z,100125.55
2019-04-25T12:57:43.285Z,100113.88
2019-04-25T13:00:13.956Z,100115.25
2019-04-25T13:02:40.155Z,100122.20
2019-04-25T13:05:07.117Z,100124.18
2019-04-25T13:07:33.129Z,100118.95
2019-04-25T13:09:58.982Z,100119.94
2019-04-25T13:12:25.165Z,100109.09
2019-04-25T13:14:51.217Z,100106.52
2019-04-25T13:17:17.069Z,100105.00
2019-04-25T13:19:45.618Z,100101.38
2019-04-25T13:22:11.944Z,100101.66
2019-04-25T13:24:37.866Z,100094.94
2019-04-25T13:27:06.138Z,100097.34
2019-04-25T13:29:39.717Z,100099.43
2019-04-25T13:32:22.835Z,100102.45
2019-04-25T13:34:50.626Z,100110.95
2019-04-25T13:37:16.665Z,100115.48
2019-04-25T13:39:44.178Z,100129.33
2019-04-25T13:42:11.609Z,100129.66
2019-04-25T13:44:37.555Z,100133.84
2019-04-25T13:47:04.602Z,100123.96
2019-04-25T13:49:31.582Z,100124.41
2019-04-25T13:51:57.640Z,100112.31
2019-04-25T13:54:24.069Z,100093.28
2019-04-25T13:56:51.060Z,100092.95
2019-04-25T13:59:17.124Z,100090.30
2019-04-25T14:01:44.200Z,100089.80
2019-04-25T14:04:10.384Z,100075.66
2019-04-25T14:06:36.305Z,100066.88
2019-04-25T14:09:06.628Z,100066.80
2019-04-25T14:11:34.180Z,100068.15
2019-04-25T14:14:01.298Z,100087.36
2019-04-25T14:16:41.072Z,100114.31
2019-04-25T14:19:21.909Z,100134.34
2019-04-25T14:21:48.425Z,100101.78
2019-04-25T14:24:20.380Z,100094.97
2019-04-25T14:26:42.244Z,100098.67
2019-04-25T14:29:08.093Z,100091.75
2019-04-25T14:31:44.813Z,100093.23
2019-04-25T14:34:03.286Z,100086.84
2019-04-25T14:36:30.251Z,100094.02
2019-04-25T14:38:56.255Z,100088.88
2019-04-25T14:41:22.376Z,100084.87
2019-04-25T14:43:48.867Z,100077.20
2019-04-25T14:46:14.917Z,100079.75
2019-04-25T14:48:40.937Z,100073.90
2019-04-25T14:51:06.920Z,100059.66
2019-04-25T14:53:34.057Z,100064.41
2019-04-25T14:56:06.792Z,100068.03
2019-04-25T14:58:34.755Z,100063.38
2019-04-25T15:01:00.789Z,100060.66
2019-04-25T15:03:26.632Z,100070.72
2019-04-25T15:05:52.604Z,100064.31
2019-04-25T15:08:18.788Z,100050.91
2019-04-25T15:10:44.629Z,100072.93
2019-04-25T15:13:11.218Z,100085.20
2019-04-25T15:15:37.248Z,100083.01
2019-04-25T15:18:03.306Z,100092.88
2019-04-25T15:20:30.149Z,100097.67
2019-04-25T15:22:56.119Z,100089.80
2019-04-25T15:25:22.320Z,100089.30
2019-04-25T15:27:48.159Z,100096.10
2019-04-25T15:30:16.220Z,100094.77
2019-04-25T15:32:42.105Z,100088.63
2019-04-25T15:35:09.943Z,100090.78
2019-04-25T15:37:38.495Z,100089.72
2019-04-25T15:40:07.607Z,100098.24
2019-04-25T15:42:35.458Z,100091.05
2019-04-25T15:45:12.202Z,100080.99
2019-04-25T15:47:38.044Z,100078.05
2019-04-25T15:50:04.968Z,100074.50
2019-04-25T15:52:31.473Z,100073.55
2019-04-25T15:55:06.909Z,100083.67
2019-04-25T15:57:25.405Z,100090.48
2019-04-25T15:59:51.239Z,100084.56
2019-04-25T16:02:18.200Z,100079.66
2019-04-25T16:04:44.058Z,100086.00
2019-04-25T16:07:10.909Z,100086.00
2019-04-25T16:09:36.741Z,100081.12
2019-04-25T16:12:02.822Z,100081.20
2019-04-25T16:14:28.647Z,100083.27
2019-04-25T16:16:54.602Z,100069.88
2019-04-25T16:19:20.542Z,100064.08
2019-04-25T16:21:46.487Z,100052.96
2019-04-25T16:24:12.839Z,100054.41
2019-04-25T16:26:38.682Z,100044.07
2019-04-25T16:29:04.826Z,100035.64
2019-04-25T16:31:30.761Z,100042.20
2019-04-25T16:33:56.612Z,100040.77
2019-04-25T16:36:22.678Z,100030.31
2019-04-25T16:38:48.628Z,100021.56
2019-04-25T16:41:14.993Z,100008.68
2019-04-25T16:43:43.225Z,99999.96
2019-04-25T16:46:09.257Z,99996.91
2019-04-25T16:48:35.686Z,99999.86
2019-04-25T16:51:01.546Z,99998.86
2019-04-25T16:53:27.697Z,99990.55
2019-04-25T16:55:53.629Z,99978.69
2019-04-25T16:58:19.592Z,99984.02
2019-04-25T17:00:47.540Z,99984.18
2019-04-25T17:03:14.612Z,99991.32
2019-04-25T17:05:40.854Z,99993.52
2019-04-25T17:08:07.199Z,99999.45
2019-04-25T17:10:33.194Z,99992.30
2019-04-25T17:12:59.166Z,99990.47
2019-04-25T17:15:32.897Z,100005.97
2019-04-25T17:18:06.948Z,100011.72
2019-04-25T17:20:34.829Z,100025.33
2019-04-25T17:23:02.567Z,100016.13
2019-04-25T17:25:28.411Z,100010.39
2019-04-25T17:27:54.463Z,100009.51
2019-04-25T17:30:20.835Z,99997.94
2019-04-25T17:32:53.874Z,99978.91
2019-04-25T17:35:21.311Z,99982.25
2019-04-25T17:37:52.311Z,99983.50
2019-04-25T17:40:26.096Z,99982.42
2019-04-25T17:42:51.918Z,99990.73
2019-04-25T17:45:19.732Z,100003.43
2019-04-25T17:47:54.349Z,100005.73
2019-04-25T17:50:13.602Z,100002.96
2019-04-25T17:52:40.632Z,100000.52
2019-04-25T17:55:06.959Z,99994.91
2019-04-25T17:57:33.073Z,99990.19
2019-04-25T17:59:59.187Z,99986.63
2019-04-25T18:02:25.107Z,99995.91
2019-04-25T18:04:51.042Z,100005.03
2019-04-25T18:07:16.971Z,100011.06
2019-04-25T18:09:43.472Z,99993.72
2019-04-25T18:12:09.691Z,99988.69
2019-04-25T18:14:36.398Z,99998.29
2019-04-25T18:17:02.738Z,99999.13
2019-04-25T18:19:42.853Z,100007.03
2019-04-25T18:22:10.784Z,99997.26
2019-04-25T18:24:45.305Z,99996.78
2019-04-25T18:27:13.399Z,99999.72
2019-04-25T18:29:39.525Z,99997.91
2019-04-25T18:32:05.760Z,100004.17
2019-04-25T18:34:46.510Z,100012.23
2019-04-25T18:37:20.728Z,100010.57
2019-04-25T18:40:06.708Z,100016.19
2019-04-25T18:42:44.167Z,100034.80
2019-04-25T18:45:12.353Z,100031.91
2019-04-25T18:47:38.301Z,100037.18
2019-04-25T18:50:05.411Z,100022.64
2019-04-25T18:52:45.212Z,100025.02
2019-04-25T18:55:13.152Z,100025.62
2019-04-25T18:57:45.478Z,100025.39
2019-04-25T19:00:25.544Z,100016.39
2019-04-25T19:02:53.319Z,100008.22
2019-04-25T19:05:21.158Z,100006.25
2019-04-25T19:07:47.407Z,100014.80
2019-04-25T19:10:13.886Z,99994.50
2019-04-25T19:12:40.211Z,99988.52
2019-04-25T19:15:07.607Z,99996.37
2019-04-25T19:17:34.593Z,99994.16
2019-04-25T19:20:00.440Z,99997.06
2019-04-25T19:22:26.349Z,100001.20
2019-04-25T19:24:52.273Z,100007.50
2019-04-25T19:27:23.926Z,100007.94
2019-04-25T19:29:47.462Z,100007.98
2019-04-25T19:32:13.309Z,100003.64
2019-04-25T19:34:42.560Z,100011.11
2019-04-25T19:37:08.713Z,100020.66
2019-04-25T19:39:36.472Z,100024.11
2019-04-25T19:42:19.273Z,100018.17
2019-04-25T19:44:45.307Z,100007.97
2019-04-25T19:47:11.366Z,100009.38
2019-04-25T19:49:37.473Z,100011.50
2019-04-25T19:52:03.519Z,100014.40
2019-04-25T19:54:29.405Z,100013.93
2019-04-25T19:56:56.510Z,100007.50
2019-04-25T19:59:22.659Z,100005.52
2019-04-25T20:01:50.605Z,99999.57
2019-04-25T20:04:18.631Z,99997.53
2019-04-25T20:07:03.069Z,99987.72
2019-04-25T20:09:33.580Z,99974.31
2019-04-25T20:11:59.539Z,99961.05
2019-04-25T20:14:25.542Z,99968.52
2019-04-25T20:16:51.766Z,99971.98
2019-04-25T20:19:18.077Z,99963.59
2019-04-25T20:21:44.586Z,99958.00
2019-04-25T20:24:11.693Z,99964.75
2019-04-25T20:26:37.632Z,99963.97
2019-04-25T20:29:03.678Z,99949.15
2019-04-25T20:31:29.559Z,99946.17
2019-04-25T20:34:05.390Z,99944.28
2019-04-25T20:36:23.329Z,99948.81
2019-04-25T20:38:49.370Z,99943.96
2019-04-25T20:41:15.294Z,99940.37
2019-04-25T20:43:41.298Z,99935.11
2019-04-25T20:46:07.379Z,99931.33
2019-04-25T20:48:33.439Z,99929.84
2019-04-25T20:50:59.375Z,99930.48
2019-04-25T20:53:25.408Z,99916.82
2019-04-25T20:55:51.446Z,99907.48
2019-04-25T20:58:17.490Z,99898.08
2019-04-25T21:00:45.699Z,99901.97
2019-04-25T21:03:11.742Z,99900.23
2019-04-25T21:05:37.804Z,99890.11
2019-04-25T21:08:03.805Z,99888.69
2019-04-25T21:10:29.637Z,99892.34
2019-04-25T21:12:55.773Z,99893.27
2019-04-25T21:15:35.327Z,99891.52
2019-04-25T21:18:05.747Z,99885.63
2019-04-25T21:20:31.741Z,99883.82
2019-04-25T21:22:57.890Z,99885.84
2019-04-25T21:25:23.928Z,99887.64
2019-04-25T21:27:50.205Z,99887.02
2019-04-25T21:30:17.394Z,99879.36
2019-04-25T21:32:52.281Z,99885.36
2019-04-25T21:35:19.929Z,99884.92
2019-04-25T21:37:46.170Z,99874.48
2019-04-25T21:40:26.645Z,99871.63
2019-04-25T21:43:04.927Z,99869.07
2019-04-25T21:45:31.890Z,99877.29
2019-04-25T21:47:58.749Z,99877.60
2019-04-25T21:50:25.113Z,99869.91
2019-04-25T21:52:51.433Z,99870.48
2019-04-25T21:55:17.608Z,99873.63
2019-04-25T21:57:43.760Z,99880.71
2019-04-25T22:00:14.812Z,99872.02
2019-04-25T22:02:41.104Z,99859.06
2019-04-25T22:05:07.439Z,99862.30
2019-04-25T22:07:33.819Z,99856.56
2019-04-25T22:10:00.294Z,99866.67
2019-04-25T22:12:26.236Z,99855.22
2019-04-25T22:14:52.260Z,99861.77
2019-04-25T22:17:18.322Z,99859.67
2019-04-25T22:19:44.572Z,99862.00
2019-04-25T22:22:10.936Z,99865.08
2019-04-25T22:24:36.907Z,99859.86
2019-04-25T22:27:05.393Z,99852.87
2019-04-25T22:29:33.147Z,99851.72
2019-04-25T22:32:01.489Z,99851.11
2019-04-25T22:34:29.973Z,99854.27
2019-04-25T22:36:55.909Z,99854.02
2019-04-25T22:39:21.786Z,99854.55
2019-04-25T22:41:49.825Z,99862.36
2019-04-25T22:44:17.766Z,99862.36
2019-04-25T22:46:43.946Z,99863.69
2019-04-25T22:49:10.081Z,99862.52
2019-04-25T22:51:36.468Z,99855.48
2019-04-25T22:54:03.817Z,99863.61
2019-04-25T22:56:29.676Z,99856.23
2019-04-25T22:58:55.729Z,99864.06
2019-04-25T23:01:35.989Z,99870.52
2019-04-25T23:04:03.829Z,99868.81
2019-04-25T23:06:30.011Z,99864.44
2019-04-25T23:08:55.894Z,99863.13
2019-04-25T23:11:21.725Z,99867.34
2019-04-25T23:13:47.763Z,99870.36
2019-04-25T23:16:13.932Z,99866.42
2019-04-25T23:18:39.770Z,99863.72
2019-04-25T23:21:06.732Z,99863.44
2019-04-25T23:23:32.671Z,99864.55
2019-04-25T23:26:00.431Z,99862.36
2019-04-25T23:28:31.342Z,99862.22
2019-04-25T23:31:02.047Z,99856.96
2019-04-25T23:33:27.894Z,99867.81
2019-04-25T23:35:54.147Z,99875.58
2019-04-25T23:38:19.969Z,99870.87
2019-04-25T23:40:46.076Z,99872.28
2019-04-25T23:43:12.467Z,99870.27
2019-04-25T23:45:38.297Z,99856.78
2019-04-25T23:48:04.176Z,99859.03
2019-04-25T23:50:30.303Z,99851.30
2019-04-25T23:52:56.126Z,99841.58
2019-04-25T23:55:22.531Z,99835.69
2019-04-25T23:57:48.547Z,99839.36
